sensor_id;sensor_type;location;lat;lon;timestamp;temperature;humidity
23471;DHT22;11908;50.806;4.424;2024-02-21T00:01:46;9.70;99.90
23471;DHT22;11908;50.806;4.424;2024-02-21T00:04:11;9.70;99.90
23471;DHT22;11908;50.806;4.424;2024-02-21T00:06:37;9.70;99.90
23471;DHT22;11908;50.806;4.424;2024-02-21T00:09:03;9.70;99.90
23471;DHT22;11908;50.806;4.424;2024-02-21T00:11:28;9.80;99.90
23471;DHT22;11908;50.806;4.424;2024-02-21T00:13:54;9.70;99.90
23471;DHT22;11908;50.806;4.424;2024-02-21T00:16:20;9.70;99.90
23471;DHT22;11908;50.806;4.424;2024-02-21T00:18:45;9.70;99.90
23471;DHT22;11908;50.806;4.424;2024-02-21T00:21:11;9.80;99.90
23471;DHT22;11908;50.806;4.424;2024-02-21T00:23:44;9.90;99.90
23471;DHT22;11908;50.806;4.424;2024-02-21T00:26:14;9.80;99.90
23471;DHT22;11908;50.806;4.424;2024-02-21T00:28:40;9.70;99.90
23471;DHT22;11908;50.806;4.424;2024-02-21T00:31:06;9.60;99.90
23471;DHT22;11908;50.806;4.424;2024-02-21T00:33:31;9.60;99.90
23471;DHT22;11908;50.806;4.424;2024-02-21T00:35:57;9.70;99.90
23471;DHT22;11908;50.806;4.424;2024-02-21T00:38:23;9.60;99.90
23471;DHT22;11908;50.806;4.424;2024-02-21T00:40:48;9.70;99.90
23471;DHT22;11908;50.806;4.424;2024-02-21T00:43:14;9.70;99.90
23471;DHT22;11908;50.806;4.424;2024-02-21T00:45:40;9.80;99.90
23471;DHT22;11908;50.806;4.424;2024-02-21T00:48:05;9.70;99.90
23471;DHT22;11908;50.806;4.424;2024-02-21T00:50:31;9.60;99.90
23471;DHT22;11908;50.806;4.424;2024-02-21T00:52:57;9.70;99.90
23471;DHT22;11908;50.806;4.424;2024-02-21T00:55:23;9.70;99.90
23471;DHT22;11908;50.806;4.424;2024-02-21T00:57:48;9.70;99.90
23471;DHT22;11908;50.806;4.424;2024-02-21T01:00:14;9.60;99.90
23471;DHT22;11908;50.806;4.424;2024-02-21T01:02:40;9.60;99.90
23471;DHT22;11908;50.806;4.424;2024-02-21T01:05:06;9.50;99.90
23471;DHT22;11908;50.806;4.424;2024-02-21T01:07:31;9.50;99.90
23471;DHT22;11908;50.806;4.424;2024-02-21T01:09:57;9.70;99.90
23471;DHT22;11908;50.806;4.424;2024-02-21T01:12:23;9.70;99.90
23471;DHT22;11908;50.806;4.424;2024-02-21T01:14:49;9.70;99.90
23471;DHT22;11908;50.806;4.424;2024-02-21T01:17:15;9.70;99.90
23471;DHT22;11908;50.806;4.424;2024-02-21T01:19:41;9.70;99.90
23471;DHT22;11908;50.806;4.424;2024-02-21T01:22:06;9.70;99.90
23471;DHT22;11908;50.806;4.424;2024-02-21T01:24:32;9.70;99.90
23471;DHT22;11908;50.806;4.424;2024-02-21T01:26:58;9.60;99.90
23471;DHT22;11908;50.806;4.424;2024-02-21T01:29:23;9.70;99.90
23471;DHT22;11908;50.806;4.424;2024-02-21T01:31:49;9.50;99.90
23471;DHT22;11908;50.806;4.424;2024-02-21T01:34:15;9.40;99.90
23471;DHT22;11908;50.806;4.424;2024-02-21T01:36:40;9.40;99.90
23471;DHT22;11908;50.806;4.424;2024-02-21T01:39:07;9.50;99.90
23471;DHT22;11908;50.806;4.424;2024-02-21T01:41:33;9.60;99.90
23471;DHT22;11908;50.806;4.424;2024-02-21T01:43:58;9.70;99.90
23471;DHT22;11908;50.806;4.424;2024-02-21T01:46:24;9.60;99.90
23471;DHT22;11908;50.806;4.424;2024-02-21T01:48:56;9.60;99.90
23471;DHT22;11908;50.806;4.424;2024-02-21T01:51:23;9.60;99.90
23471;DHT22;11908;50.806;4.424;2024-02-21T01:53:51;9.60;99.90
23471;DHT22;11908;50.806;4.424;2024-02-21T01:56:17;9.60;99.90
23471;DHT22;11908;50.806;4.424;2024-02-21T01:58:44;9.50;99.90
23471;DHT22;11908;50.806;4.424;2024-02-21T02:01:10;9.50;99.90
23471;DHT22;11908;50.806;4.424;2024-02-21T02:03:36;9.40;99.90
23471;DHT22;11908;50.806;4.424;2024-02-21T02:06:03;9.40;99.90
23471;DHT22;11908;50.806;4.424;2024-02-21T02:08:30;9.50;99.90
23471;DHT22;11908;50.806;4.424;2024-02-21T02:10:56;9.40;99.90
23471;DHT22;11908;50.806;4.424;2024-02-21T02:13:22;9.50;99.90
23471;DHT22;11908;50.806;4.424;2024-02-21T02:15:49;9.40;99.90
23471;DHT22;11908;50.806;4.424;2024-02-21T02:18:16;9.40;99.90
23471;DHT22;11908;50.806;4.424;2024-02-21T02:20:41;9.40;99.90
23471;DHT22;11908;50.806;4.424;2024-02-21T02:23:23;9.40;99.90
23471;DHT22;11908;50.806;4.424;2024-02-21T02:25:48;9.40;99.90
23471;DHT22;11908;50.806;4.424;2024-02-21T02:28:16;9.40;99.90
23471;DHT22;11908;50.806;4.424;2024-02-21T02:30:42;9.40;99.90
23471;DHT22;11908;50.806;4.424;2024-02-21T02:33:08;9.40;99.90
23471;DHT22;11908;50.806;4.424;2024-02-21T02:35:34;9.30;99.90
23471;DHT22;11908;50.806;4.424;2024-02-21T02:38:04;9.30;99.90
23471;DHT22;11908;50.806;4.424;2024-02-21T02:40:31;9.40;99.90
23471;DHT22;11908;50.806;4.424;2024-02-21T02:42:57;9.40;99.90
23471;DHT22;11908;50.806;4.424;2024-02-21T02:45:23;9.40;99.90
23471;DHT22;11908;50.806;4.424;2024-02-21T02:47:55;9.40;99.90
23471;DHT22;11908;50.806;4.424;2024-02-21T02:50:23;9.40;99.90
23471;DHT22;11908;50.806;4.424;2024-02-21T02:52:48;9.50;99.90
23471;DHT22;11908;50.806;4.424;2024-02-21T02:55:14;9.50;99.90
23471;DHT22;11908;50.806;4.424;2024-02-21T02:57:40;9.50;99.90
23471;DHT22;11908;50.806;4.424;2024-02-21T03:00:08;9.50;99.90
23471;DHT22;11908;50.806;4.424;2024-02-21T03:02:35;9.60;99.90
23471;DHT22;11908;50.806;4.424;2024-02-21T03:05:01;9.50;99.90
23471;DHT22;11908;50.806;4.424;2024-02-21T03:07:36;9.50;99.90
23471;DHT22;11908;50.806;4.424;2024-02-21T03:10:02;9.40;99.90
23471;DHT22;11908;50.806;4.424;2024-02-21T03:12:27;9.50;99.90
23471;DHT22;11908;50.806;4.424;2024-02-21T03:14:54;9.60;99.90
23471;DHT22;11908;50.806;4.424;2024-02-21T03:17:20;9.60;99.90
23471;DHT22;11908;50.806;4.424;2024-02-21T03:19:46;9.60;99.90
23471;DHT22;11908;50.806;4.424;2024-02-21T03:22:14;9.70;99.90
23471;DHT22;11908;50.806;4.424;2024-02-21T03:24:39;9.70;99.90
23471;DHT22;11908;50.806;4.424;2024-02-21T03:27:05;9.60;99.90
23471;DHT22;11908;50.806;4.424;2024-02-21T03:29:30;9.60;99.90
23471;DHT22;11908;50.806;4.424;2024-02-21T03:31:56;9.60;99.90
23471;DHT22;11908;50.806;4.424;2024-02-21T03:34:22;9.60;99.90
23471;DHT22;11908;50.806;4.424;2024-02-21T03:36:48;9.70;99.90
23471;DHT22;11908;50.806;4.424;2024-02-21T03:39:13;9.60;99.90
23471;DHT22;11908;50.806;4.424;2024-02-21T03:41:39;9.60;99.90
23471;DHT22;11908;50.806;4.424;2024-02-21T03:44:04;9.60;99.90
23471;DHT22;11908;50.806;4.424;2024-02-21T03:46:30;9.60;99.90
23471;DHT22;11908;50.806;4.424;2024-02-21T03:48:57;9.50;99.90
23471;DHT22;11908;50.806;4.424;2024-02-21T03:51:23;9.60;99.90
23471;DHT22;11908;50.806;4.424;2024-02-21T03:53:48;9.60;99.90
23471;DHT22;11908;50.806;4.424;2024-02-21T03:56:14;9.40;99.90
23471;DHT22;11908;50.806;4.424;2024-02-21T03:58:40;9.50;99.90
23471;DHT22;11908;50.806;4.424;2024-02-21T04:01:05;9.40;99.90
23471;DHT22;11908;50.806;4.424;2024-02-21T04:03:31;9.50;99.90
23471;DHT22;11908;50.806;4.424;2024-02-21T04:05:57;9.30;99.90
23471;DHT22;11908;50.806;4.424;2024-02-21T04:08:23;9.40;99.90
23471;DHT22;11908;50.806;4.424;2024-02-21T04:10:49;9.40;99.90
23471;DHT22;11908;50.806;4.424;2024-02-21T04:13:14;9.40;99.90
23471;DHT22;11908;50.806;4.424;2024-02-21T04:15:40;9.50;99.90
23471;DHT22;11908;50.806;4.424;2024-02-21T04:18:06;9.50;99.90
23471;DHT22;11908;50.806;4.424;2024-02-21T04:20:32;9.50;99.90
23471;DHT22;11908;50.806;4.424;2024-02-21T04:22:57;9.50;99.90
23471;DHT22;11908;50.806;4.424;2024-02-21T04:25:23;9.60;99.90
23471;DHT22;11908;50.806;4.424;2024-02-21T04:27:49;9.50;99.90
23471;DHT22;11908;50.806;4.424;2024-02-21T04:30:15;9.60;99.90
23471;DHT22;11908;50.806;4.424;2024-02-21T04:32:41;9.50;99.90
23471;DHT22;11908;50.806;4.424;2024-02-21T04:35:07;9.50;99.90
23471;DHT22;11908;50.806;4.424;2024-02-21T04:37:33;9.50;99.90
23471;DHT22;11908;50.806;4.424;2024-02-21T04:39:59;9.40;99.90
23471;DHT22;11908;50.806;4.424;2024-02-21T04:42:24;9.40;99.90
23471;DHT22;11908;50.806;4.424;2024-02-21T04:44:50;9.40;99.90
23471;DHT22;11908;50.806;4.424;2024-02-21T04:47:16;9.50;99.90
23471;DHT22;11908;50.806;4.424;2024-02-21T04:49:41;9.50;99.90
23471;DHT22;11908;50.806;4.424;2024-02-21T04:52:07;9.60;99.90
23471;DHT22;11908;50.806;4.424;2024-02-21T04:54:33;9.50;99.90
23471;DHT22;11908;50.806;4.424;2024-02-21T04:57:00;9.40;99.90
23471;DHT22;11908;50.806;4.424;2024-02-21T04:59:26;9.50;99.90
23471;DHT22;11908;50.806;4.424;2024-02-21T05:01:52;9.60;99.90
23471;DHT22;11908;50.806;4.424;2024-02-21T05:04:18;9.70;99.90
23471;DHT22;11908;50.806;4.424;2024-02-21T05:06:43;9.70;99.90
23471;DHT22;11908;50.806;4.424;2024-02-21T05:09:10;9.70;99.90
23471;DHT22;11908;50.806;4.424;2024-02-21T05:11:36;9.60;99.90
23471;DHT22;11908;50.806;4.424;2024-02-21T05:14:02;9.70;99.90
23471;DHT22;11908;50.806;4.424;2024-02-21T05:16:28;9.70;99.90
23471;DHT22;11908;50.806;4.424;2024-02-21T05:18:54;9.70;99.90
23471;DHT22;11908;50.806;4.424;2024-02-21T05:21:19;9.70;99.90
23471;DHT22;11908;50.806;4.424;2024-02-21T05:23:45;9.80;99.90
23471;DHT22;11908;50.806;4.424;2024-02-21T05:26:11;9.70;99.90
23471;DHT22;11908;50.806;4.424;2024-02-21T05:28:36;9.70;99.90
23471;DHT22;11908;50.806;4.424;2024-02-21T05:31:02;9.70;99.90
23471;DHT22;11908;50.806;4.424;2024-02-21T05:33:28;9.70;99.90
23471;DHT22;11908;50.806;4.424;2024-02-21T05:35:54;9.60;99.90
23471;DHT22;11908;50.806;4.424;2024-02-21T05:38:19;9.50;99.90
23471;DHT22;11908;50.806;4.424;2024-02-21T05:40:45;9.60;99.90
23471;DHT22;11908;50.806;4.424;2024-02-21T05:43:11;9.50;99.90
23471;DHT22;11908;50.806;4.424;2024-02-21T05:45:36;9.50;99.90
23471;DHT22;11908;50.806;4.424;2024-02-21T05:48:03;9.50;99.90
23471;DHT22;11908;50.806;4.424;2024-02-21T05:50:29;9.60;99.90
23471;DHT22;11908;50.806;4.424;2024-02-21T05:52:55;9.50;99.90
23471;DHT22;11908;50.806;4.424;2024-02-21T05:55:21;9.50;99.90
23471;DHT22;11908;50.806;4.424;2024-02-21T05:57:47;9.50;99.90
23471;DHT22;11908;50.806;4.424;2024-02-21T06:00:13;9.50;99.90
23471;DHT22;11908;50.806;4.424;2024-02-21T06:02:39;9.50;99.90
23471;DHT22;11908;50.806;4.424;2024-02-21T06:05:06;9.40;99.90
23471;DHT22;11908;50.806;4.424;2024-02-21T06:07:33;9.40;99.90
23471;DHT22;11908;50.806;4.424;2024-02-21T06:10:01;9.40;99.90
23471;DHT22;11908;50.806;4.424;2024-02-21T06:12:27;9.50;99.90
23471;DHT22;11908;50.806;4.424;2024-02-21T06:14:52;9.50;99.90
23471;DHT22;11908;50.806;4.424;2024-02-21T06:17:18;9.40;99.90
23471;DHT22;11908;50.806;4.424;2024-02-21T06:19:44;9.40;99.90
23471;DHT22;11908;50.806;4.424;2024-02-21T06:22:10;9.40;99.90
23471;DHT22;11908;50.806;4.424;2024-02-21T06:24:36;9.50;99.90
23471;DHT22;11908;50.806;4.424;2024-02-21T06:27:05;9.40;99.90
23471;DHT22;11908;50.806;4.424;2024-02-21T06:29:34;9.40;99.90
23471;DHT22;11908;50.806;4.424;2024-02-21T06:32:00;9.30;99.90
23471;DHT22;11908;50.806;4.424;2024-02-21T06:34:26;9.40;99.90
23471;DHT22;11908;50.806;4.424;2024-02-21T06:36:52;9.40;99.90
23471;DHT22;11908;50.806;4.424;2024-02-21T06:39:17;9.40;99.90
23471;DHT22;11908;50.806;4.424;2024-02-21T06:41:43;9.40;99.90
23471;DHT22;11908;50.806;4.424;2024-02-21T06:44:09;9.40;99.90
23471;DHT22;11908;50.806;4.424;2024-02-21T06:46:35;9.40;99.90
23471;DHT22;11908;50.806;4.424;2024-02-21T06:49:01;9.30;99.90
23471;DHT22;11908;50.806;4.424;2024-02-21T06:51:28;9.30;99.90
23471;DHT22;11908;50.806;4.424;2024-02-21T06:53:55;9.30;99.90
23471;DHT22;11908;50.806;4.424;2024-02-21T06:56:22;9.30;99.90
23471;DHT22;11908;50.806;4.424;2024-02-21T06:58:52;9.30;99.90
23471;DHT22;11908;50.806;4.424;2024-02-21T07:01:18;9.30;99.90
23471;DHT22;11908;50.806;4.424;2024-02-21T07:03:43;9.30;99.90
23471;DHT22;11908;50.806;4.424;2024-02-21T07:06:09;9.30;99.90
23471;DHT22;11908;50.806;4.424;2024-02-21T07:08:35;9.30;99.90
23471;DHT22;11908;50.806;4.424;2024-02-21T07:11:01;9.40;99.90
23471;DHT22;11908;50.806;4.424;2024-02-21T07:13:26;9.40;99.90
23471;DHT22;11908;50.806;4.424;2024-02-21T07:15:52;9.50;99.90
23471;DHT22;11908;50.806;4.424;2024-02-21T07:18:18;9.40;99.90
23471;DHT22;11908;50.806;4.424;2024-02-21T07:20:43;9.30;99.90
23471;DHT22;11908;50.806;4.424;2024-02-21T07:23:09;9.30;99.90
23471;DHT22;11908;50.806;4.424;2024-02-21T07:25:35;9.20;99.90
23471;DHT22;11908;50.806;4.424;2024-02-21T07:28:01;9.10;99.90
23471;DHT22;11908;50.806;4.424;2024-02-21T07:30:26;9.10;99.90
23471;DHT22;11908;50.806;4.424;2024-02-21T07:32:52;9.10;99.90
23471;DHT22;11908;50.806;4.424;2024-02-21T07:35:18;9.10;99.90
23471;DHT22;11908;50.806;4.424;2024-02-21T07:37:44;9.10;99.90
23471;DHT22;11908;50.806;4.424;2024-02-21T07:40:14;9.10;99.90
23471;DHT22;11908;50.806;4.424;2024-02-21T07:42:40;9.10;99.90
23471;DHT22;11908;50.806;4.424;2024-02-21T07:45:09;9.20;99.90
23471;DHT22;11908;50.806;4.424;2024-02-21T07:47:36;9.20;99.90
23471;DHT22;11908;50.806;4.424;2024-02-21T07:50:03;9.20;99.90
23471;DHT22;11908;50.806;4.424;2024-02-21T07:52:29;9.30;99.90
23471;DHT22;11908;50.806;4.424;2024-02-21T07:54:55;9.30;99.90
23471;DHT22;11908;50.806;4.424;2024-02-21T07:57:20;9.30;99.90
23471;DHT22;11908;50.806;4.424;2024-02-21T07:59:47;9.30;99.90
23471;DHT22;11908;50.806;4.424;2024-02-21T08:02:16;9.30;99.90
23471;DHT22;11908;50.806;4.424;2024-02-21T08:04:41;9.30;99.90
23471;DHT22;11908;50.806;4.424;2024-02-21T08:07:07;9.40;99.90
23471;DHT22;11908;50.806;4.424;2024-02-21T08:09:33;9.50;99.90
23471;DHT22;11908;50.806;4.424;2024-02-21T08:11:59;9.50;99.90
23471;DHT22;11908;50.806;4.424;2024-02-21T08:14:24;9.50;99.90
23471;DHT22;11908;50.806;4.424;2024-02-21T08:16:51;9.40;99.90
23471;DHT22;11908;50.806;4.424;2024-02-21T08:19:19;9.40;99.90
23471;DHT22;11908;50.806;4.424;2024-02-21T08:21:45;9.40;99.90
23471;DHT22;11908;50.806;4.424;2024-02-21T08:24:15;9.40;99.90
23471;DHT22;11908;50.806;4.424;2024-02-21T08:26:41;9.50;99.90
23471;DHT22;11908;50.806;4.424;2024-02-21T08:29:07;9.50;99.90
23471;DHT22;11908;50.806;4.424;2024-02-21T08:31:33;9.40;99.90
23471;DHT22;11908;50.806;4.424;2024-02-21T08:34:00;9.50;99.90
23471;DHT22;11908;50.806;4.424;2024-02-21T08:36:33;9.60;99.90
23471;DHT22;11908;50.806;4.424;2024-02-21T08:38:59;9.60;99.90
23471;DHT22;11908;50.806;4.424;2024-02-21T08:41:25;9.50;99.90
23471;DHT22;11908;50.806;4.424;2024-02-21T08:43:52;9.50;99.90
23471;DHT22;11908;50.806;4.424;2024-02-21T08:46:19;9.50;99.90
23471;DHT22;11908;50.806;4.424;2024-02-21T08:48:46;9.60;99.90
23471;DHT22;11908;50.806;4.424;2024-02-21T08:51:12;9.70;99.90
23471;DHT22;11908;50.806;4.424;2024-02-21T08:53:38;9.70;99.90
23471;DHT22;11908;50.806;4.424;2024-02-21T08:56:04;9.60;99.90
23471;DHT22;11908;50.806;4.424;2024-02-21T08:58:30;9.50;99.90
23471;DHT22;11908;50.806;4.424;2024-02-21T09:00:56;9.60;99.90
23471;DHT22;11908;50.806;4.424;2024-02-21T09:03:22;9.70;99.90
23471;DHT22;11908;50.806;4.424;2024-02-21T09:05:48;9.80;99.90
23471;DHT22;11908;50.806;4.424;2024-02-21T09:08:14;9.80;99.90
23471;DHT22;11908;50.806;4.424;2024-02-21T09:10:40;9.90;99.90
23471;DHT22;11908;50.806;4.424;2024-02-21T09:13:05;9.90;99.90
23471;DHT22;11908;50.806;4.424;2024-02-21T09:15:33;9.90;99.90
23471;DHT22;11908;50.806;4.424;2024-02-21T09:17:58;10.10;99.90
23471;DHT22;11908;50.806;4.424;2024-02-21T09:20:24;10.00;99.90
23471;DHT22;11908;50.806;4.424;2024-02-21T09:22:50;10.10;99.90
23471;DHT22;11908;50.806;4.424;2024-02-21T09:25:16;10.20;99.90
23471;DHT22;11908;50.806;4.424;2024-02-21T09:27:43;10.10;99.90
23471;DHT22;11908;50.806;4.424;2024-02-21T09:30:09;10.10;99.90
23471;DHT22;11908;50.806;4.424;2024-02-21T09:32:35;10.10;99.90
23471;DHT22;11908;50.806;4.424;2024-02-21T09:35:01;10.10;99.90
23471;DHT22;11908;50.806;4.424;2024-02-21T09:37:27;10.30;99.90
23471;DHT22;11908;50.806;4.424;2024-02-21T09:39:52;10.40;99.90
23471;DHT22;11908;50.806;4.424;2024-02-21T09:42:21;10.50;99.90
23471;DHT22;11908;50.806;4.424;2024-02-21T09:44:49;10.70;99.90
23471;DHT22;11908;50.806;4.424;2024-02-21T09:50:11;10.80;99.90
23471;DHT22;11908;50.806;4.424;2024-02-21T09:52:37;10.60;99.90
23471;DHT22;11908;50.806;4.424;2024-02-21T09:55:04;10.80;99.90
23471;DHT22;11908;50.806;4.424;2024-02-21T09:57:31;11.00;99.90
23471;DHT22;11908;50.806;4.424;2024-02-21T09:59:57;11.10;99.90
23471;DHT22;11908;50.806;4.424;2024-02-21T10:02:24;11.20;99.90
23471;DHT22;11908;50.806;4.424;2024-02-21T10:04:50;11.30;99.90
23471;DHT22;11908;50.806;4.424;2024-02-21T10:07:15;11.20;99.90
23471;DHT22;11908;50.806;4.424;2024-02-21T10:09:41;11.10;99.90
23471;DHT22;11908;50.806;4.424;2024-02-21T10:12:08;11.10;99.90
23471;DHT22;11908;50.806;4.424;2024-02-21T10:14:37;11.00;99.90
23471;DHT22;11908;50.806;4.424;2024-02-21T10:17:03;11.10;99.90
23471;DHT22;11908;50.806;4.424;2024-02-21T10:19:34;11.20;99.90
23471;DHT22;11908;50.806;4.424;2024-02-21T10:22:01;11.30;99.90
23471;DHT22;11908;50.806;4.424;2024-02-21T10:24:30;11.40;99.90
23471;DHT22;11908;50.806;4.424;2024-02-21T10:27:05;11.40;99.90
23471;DHT22;11908;50.806;4.424;2024-02-21T10:29:33;11.40;99.90
23471;DHT22;11908;50.806;4.424;2024-02-21T10:32:12;11.40;99.90
23471;DHT22;11908;50.806;4.424;2024-02-21T10:34:39;11.30;99.90
23471;DHT22;11908;50.806;4.424;2024-02-21T10:37:07;11.10;99.90
23471;DHT22;11908;50.806;4.424;2024-02-21T10:39:41;11.10;99.90
23471;DHT22;11908;50.806;4.424;2024-02-21T10:42:07;11.10;99.90
23471;DHT22;11908;50.806;4.424;2024-02-21T10:44:39;11.10;99.90
23471;DHT22;11908;50.806;4.424;2024-02-21T10:47:08;11.20;99.90
23471;DHT22;11908;50.806;4.424;2024-02-21T10:49:38;11.10;99.90
23471;DHT22;11908;50.806;4.424;2024-02-21T10:52:14;11.20;99.90
23471;DHT22;11908;50.806;4.424;2024-02-21T10:54:51;11.20;99.90
23471;DHT22;11908;50.806;4.424;2024-02-21T10:57:19;11.20;99.90
23471;DHT22;11908;50.806;4.424;2024-02-21T10:59:48;11.20;99.90
23471;DHT22;11908;50.806;4.424;2024-02-21T11:02:14;11.30;99.90
23471;DHT22;11908;50.806;4.424;2024-02-21T11:04:41;11.40;99.90
23471;DHT22;11908;50.806;4.424;2024-02-21T11:07:07;11.40;99.90
23471;DHT22;11908;50.806;4.424;2024-02-21T11:09:34;11.30;99.90
23471;DHT22;11908;50.806;4.424;2024-02-21T11:12:04;11.20;99.90
23471;DHT22;11908;50.806;4.424;2024-02-21T11:14:30;11.20;99.90
23471;DHT22;11908;50.806;4.424;2024-02-21T11:17:01;11.20;99.90
23471;DHT22;11908;50.806;4.424;2024-02-21T11:19:29;11.30;99.90
23471;DHT22;11908;50.806;4.424;2024-02-21T11:21:57;11.40;99.90
23471;DHT22;11908;50.806;4.424;2024-02-21T11:24:30;11.40;99.90
23471;DHT22;11908;50.806;4.424;2024-02-21T11:27:15;11.50;99.90
23471;DHT22;11908;50.806;4.424;2024-02-21T11:29:49;11.50;99.90
23471;DHT22;11908;50.806;4.424;2024-02-21T11:32:19;11.50;99.90
23471;DHT22;11908;50.806;4.424;2024-02-21T11:34:58;11.50;99.90
23471;DHT22;11908;50.806;4.424;2024-02-21T11:37:28;11.30;99.90
23471;DHT22;11908;50.806;4.424;2024-02-21T11:39:58;11.40;99.90
23471;DHT22;11908;50.806;4.424;2024-02-21T11:42:27;11.40;99.90
23471;DHT22;11908;50.806;4.424;2024-02-21T11:44:54;11.40;99.90
23471;DHT22;11908;50.806;4.424;2024-02-21T11:47:22;11.30;99.90
23471;DHT22;11908;50.806;4.424;2024-02-21T11:49:49;11.40;99.90
23471;DHT22;11908;50.806;4.424;2024-02-21T11:52:21;11.40;99.90
23471;DHT22;11908;50.806;4.424;2024-02-21T11:54:48;11.40;99.90
23471;DHT22;11908;50.806;4.424;2024-02-21T11:57:14;11.50;99.90
23471;DHT22;11908;50.806;4.424;2024-02-21T11:59:44;11.40;99.90
23471;DHT22;11908;50.806;4.424;2024-02-21T12:02:11;11.30;99.90
23471;DHT22;11908;50.806;4.424;2024-02-21T12:04:37;11.40;99.90
23471;DHT22;11908;50.806;4.424;2024-02-21T12:07:02;11.40;99.90
23471;DHT22;11908;50.806;4.424;2024-02-21T12:09:31;11.30;99.90
23471;DHT22;11908;50.806;4.424;2024-02-21T12:12:01;11.20;99.90
23471;DHT22;11908;50.806;4.424;2024-02-21T12:14:29;11.00;99.90
23471;DHT22;11908;50.806;4.424;2024-02-21T12:16:55;11.10;99.90
23471;DHT22;11908;50.806;4.424;2024-02-21T12:19:21;11.00;99.90
23471;DHT22;11908;50.806;4.424;2024-02-21T12:21:48;11.00;99.90
23471;DHT22;11908;50.806;4.424;2024-02-21T12:24:26;11.00;99.90
23471;DHT22;11908;50.806;4.424;2024-02-21T12:26:55;11.10;99.90
23471;DHT22;11908;50.806;4.424;2024-02-21T12:29:22;11.10;99.90
23471;DHT22;11908;50.806;4.424;2024-02-21T12:31:51;10.90;99.90
23471;DHT22;11908;50.806;4.424;2024-02-21T12:34:17;11.00;99.90
23471;DHT22;11908;50.806;4.424;2024-02-21T12:36:44;10.90;99.90
23471;DHT22;11908;50.806;4.424;2024-02-21T12:39:12;10.90;99.90
23471;DHT22;11908;50.806;4.424;2024-02-21T12:41:38;11.00;99.90
23471;DHT22;11908;50.806;4.424;2024-02-21T12:44:06;11.10;99.90
23471;DHT22;11908;50.806;4.424;2024-02-21T12:46:37;11.20;99.90
23471;DHT22;11908;50.806;4.424;2024-02-21T12:49:03;11.20;99.90
23471;DHT22;11908;50.806;4.424;2024-02-21T12:51:30;11.20;99.90
23471;DHT22;11908;50.806;4.424;2024-02-21T12:53:56;11.20;99.90
23471;DHT22;11908;50.806;4.424;2024-02-21T12:56:22;11.10;99.90
23471;DHT22;11908;50.806;4.424;2024-02-21T12:58:47;11.00;99.90
23471;DHT22;11908;50.806;4.424;2024-02-21T13:01:13;11.00;99.90
23471;DHT22;11908;50.806;4.424;2024-02-21T13:03:39;11.20;99.90
23471;DHT22;11908;50.806;4.424;2024-02-21T13:06:05;11.20;99.90
23471;DHT22;11908;50.806;4.424;2024-02-21T13:08:32;11.30;99.90
23471;DHT22;11908;50.806;4.424;2024-02-21T13:10:59;11.30;99.90
23471;DHT22;11908;50.806;4.424;2024-02-21T13:13:25;11.30;99.90
23471;DHT22;11908;50.806;4.424;2024-02-21T13:15:51;11.20;99.90
23471;DHT22;11908;50.806;4.424;2024-02-21T13:18:16;11.20;99.90
23471;DHT22;11908;50.806;4.424;2024-02-21T13:20:42;11.30;99.90
23471;DHT22;11908;50.806;4.424;2024-02-21T13:23:08;11.30;99.90
23471;DHT22;11908;50.806;4.424;2024-02-21T13:25:33;11.40;99.90
23471;DHT22;11908;50.806;4.424;2024-02-21T13:27:59;11.30;99.90
23471;DHT22;11908;50.806;4.424;2024-02-21T13:30:25;11.30;99.90
23471;DHT22;11908;50.806;4.424;2024-02-21T13:32:51;11.30;99.90
23471;DHT22;11908;50.806;4.424;2024-02-21T13:35:17;11.20;99.90
23471;DHT22;11908;50.806;4.424;2024-02-21T13:37:43;11.20;99.90
23471;DHT22;11908;50.806;4.424;2024-02-21T13:40:09;11.30;99.90
23471;DHT22;11908;50.806;4.424;2024-02-21T13:42:36;11.20;99.90
23471;DHT22;11908;50.806;4.424;2024-02-21T13:45:01;11.20;99.90
23471;DHT22;11908;50.806;4.424;2024-02-21T13:47:28;11.20;99.90
23471;DHT22;11908;50.806;4.424;2024-02-21T13:49:54;11.10;99.90
23471;DHT22;11908;50.806;4.424;2024-02-21T13:52:20;11.10;99.90
23471;DHT22;11908;50.806;4.424;2024-02-21T13:54:47;11.00;99.90
23471;DHT22;11908;50.806;4.424;2024-02-21T13:57:13;11.00;99.90
23471;DHT22;11908;50.806;4.424;2024-02-21T13:59:39;10.80;99.90
23471;DHT22;11908;50.806;4.424;2024-02-21T14:02:05;10.80;99.90
23471;DHT22;11908;50.806;4.424;2024-02-21T14:04:34;10.80;99.90
23471;DHT22;11908;50.806;4.424;2024-02-21T14:07:00;10.80;99.90
23471;DHT22;11908;50.806;4.424;2024-02-21T14:09:26;10.70;99.90
23471;DHT22;11908;50.806;4.424;2024-02-21T14:11:52;10.80;99.90
23471;DHT22;11908;50.806;4.424;2024-02-21T14:14:18;10.80;99.90
23471;DHT22;11908;50.806;4.424;2024-02-21T14:16:43;10.70;99.90
23471;DHT22;11908;50.806;4.424;2024-02-21T14:19:09;10.60;99.90
23471;DHT22;11908;50.806;4.424;2024-02-21T14:21:37;10.70;99.90
23471;DHT22;11908;50.806;4.424;2024-02-21T14:24:04;10.80;99.90
23471;DHT22;11908;50.806;4.424;2024-02-21T14:26:30;10.80;99.90
23471;DHT22;11908;50.806;4.424;2024-02-21T14:28:57;10.80;99.90
23471;DHT22;11908;50.806;4.424;2024-02-21T14:31:22;10.80;99.90
23471;DHT22;11908;50.806;4.424;2024-02-21T14:33:48;10.70;99.90
23471;DHT22;11908;50.806;4.424;2024-02-21T14:36:14;10.60;99.90
23471;DHT22;11908;50.806;4.424;2024-02-21T14:38:41;10.60;99.90
23471;DHT22;11908;50.806;4.424;2024-02-21T14:41:07;10.50;99.90
23471;DHT22;11908;50.806;4.424;2024-02-21T14:43:32;10.50;99.90
23471;DHT22;11908;50.806;4.424;2024-02-21T14:46:00;10.50;99.90
23471;DHT22;11908;50.806;4.424;2024-02-21T14:48:30;10.50;99.90
23471;DHT22;11908;50.806;4.424;2024-02-21T14:50:55;10.50;99.90
23471;DHT22;11908;50.806;4.424;2024-02-21T14:53:21;10.50;99.90
23471;DHT22;11908;50.806;4.424;2024-02-21T14:55:46;10.40;99.90
23471;DHT22;11908;50.806;4.424;2024-02-21T14:58:12;10.30;99.90
23471;DHT22;11908;50.806;4.424;2024-02-21T15:00:38;10.20;99.90
23471;DHT22;11908;50.806;4.424;2024-02-21T15:03:04;10.30;99.90
23471;DHT22;11908;50.806;4.424;2024-02-21T15:05:29;10.30;99.90
23471;DHT22;11908;50.806;4.424;2024-02-21T15:07:56;10.10;99.90
23471;DHT22;11908;50.806;4.424;2024-02-21T15:10:24;10.10;99.90
23471;DHT22;11908;50.806;4.424;2024-02-21T15:12:50;10.10;99.90
23471;DHT22;11908;50.806;4.424;2024-02-21T15:15:16;10.00;99.90
23471;DHT22;11908;50.806;4.424;2024-02-21T15:17:42;10.10;99.90
23471;DHT22;11908;50.806;4.424;2024-02-21T15:20:08;10.10;99.90
23471;DHT22;11908;50.806;4.424;2024-02-21T15:22:35;10.10;99.90
23471;DHT22;11908;50.806;4.424;2024-02-21T15:25:01;10.10;99.90
23471;DHT22;11908;50.806;4.424;2024-02-21T15:27:27;10.00;99.90
23471;DHT22;11908;50.806;4.424;2024-02-21T15:29:54;10.00;99.90
23471;DHT22;11908;50.806;4.424;2024-02-21T15:32:20;9.90;99.90
23471;DHT22;11908;50.806;4.424;2024-02-21T15:34:46;9.90;99.90
23471;DHT22;11908;50.806;4.424;2024-02-21T15:37:12;9.90;99.90
23471;DHT22;11908;50.806;4.424;2024-02-21T15:39:41;9.80;99.90